createdAt,value
2019-02-16T00:00:59.784Z,100984.91
2019-02-16T00:03:33.020Z,100978.48
2019-02-16T00:06:06.096Z,100985.14
2019-02-16T00:08:39.428Z,100987.95
2019-02-16T00:11:12.343Z,100987.25
2019-02-16T00:13:46.785Z,100981.16
2019-02-16T00:16:18.844Z,100983.50
2019-02-16T00:18:52.384Z,100982.83
2019-02-16T00:21:26.072Z,100981.06
2019-02-16T00:23:59.517Z,100977.82
2019-02-16T00:26:33.598Z,100973.78
2019-02-16T00:29:07.465Z,100975.84
2019-02-16T00:31:41.594Z,100977.39
2019-02-16T00:34:15.760Z,100978.89
2019-02-16T00:36:49.515Z,100971.31
2019-02-16T00:39:23.653Z,100972.66
2019-02-16T00:41:56.906Z,100972.23
2019-02-16T00:44:30.347Z,100974.91
2019-02-16T00:47:05.400Z,100974.51
2019-02-16T00:49:39.060Z,100972.16
2019-02-16T00:52:13.088Z,100969.28
2019-02-16T00:54:46.848Z,100971.90
2019-02-16T00:57:20.034Z,100970.48
2019-02-16T00:59:54.196Z,100971.31
2019-02-16T01:02:27.917Z,100970.58
2019-02-16T01:05:00.300Z,100966.53
2019-02-16T01:07:33.963Z,100967.84
2019-02-16T01:10:07.503Z,100970.66
2019-02-16T01:12:41.345Z,100972.30
2019-02-16T01:15:15.278Z,100968.63
2019-02-16T01:17:49.515Z,100969.69
2019-02-16T01:20:22.652Z,100964.38
2019-02-16T01:22:56.408Z,100968.41
2019-02-16T01:25:30.524Z,100964.09
2019-02-16T01:28:04.225Z,100965.36
2019-02-16T01:30:38.368Z,100966.05
2019-02-16T01:33:11.667Z,100970.02
2019-02-16T01:35:44.454Z,100972.67
2019-02-16T01:38:18.234Z,100972.29
2019-02-16T01:40:51.884Z,100966.67
2019-02-16T01:43:25.259Z,100966.88
2019-02-16T01:45:59.438Z,100961.41
2019-02-16T01:48:32.726Z,100954.92
2019-02-16T01:51:06.340Z,100949.17
2019-02-16T01:53:41.111Z,100949.70
2019-02-16T01:56:14.351Z,100950.61
2019-02-16T01:58:48.110Z,100951.28
2019-02-16T02:01:21.860Z,100950.33
2019-02-16T02:03:55.132Z,100946.16
2019-02-16T02:06:28.456Z,100942.23
2019-02-16T02:09:01.855Z,100941.84
2019-02-16T02:11:35.294Z,100936.75
2019-02-16T02:14:09.467Z,100939.20
2019-02-16T02:16:44.115Z,100938.20
2019-02-16T02:19:17.901Z,100931.13
2019-02-16T02:21:52.759Z,100928.45
2019-02-16T02:24:26.339Z,100931.41
2019-02-16T02:26:59.808Z,100926.61
2019-02-16T02:29:33.021Z,100925.34
2019-02-16T02:32:05.359Z,100923.66
2019-02-16T02:34:39.123Z,100921.41
2019-02-16T02:37:12.009Z,100923.22
2019-02-16T02:39:46.083Z,100921.47
2019-02-16T02:42:20.338Z,100922.44
2019-02-16T02:44:54.611Z,100920.33
2019-02-16T02:47:28.749Z,100925.44
2019-02-16T02:50:03.088Z,100922.30
2019-02-16T02:52:35.510Z,100928.87
2019-02-16T02:55:08.511Z,100930.23
2019-02-16T02:57:42.719Z,100927.42
2019-02-16T03:00:16.749Z,100926.05
2019-02-16T03:02:51.174Z,100928.22
2019-02-16T03:05:24.911Z,100928.07
2019-02-16T03:07:58.618Z,100925.16
2019-02-16T03:10:31.777Z,100929.58
2019-02-16T03:13:06.303Z,100928.87
2019-02-16T03:15:40.048Z,100926.03
2019-02-16T03:18:14.114Z,100923.77
2019-02-16T03:20:48.138Z,100927.58
2019-02-16T03:23:22.818Z,100933.53
2019-02-16T03:26:35.966Z,100932.39
2019-02-16T03:29:57.182Z,100930.38
2019-02-16T03:33:12.686Z,100928.42
2019-02-16T03:36:40.376Z,100930.75
2019-02-16T03:39:29.959Z,100934.56
2019-02-16T03:42:03.739Z,100936.84
2019-02-16T03:44:37.535Z,100932.47
2019-02-16T03:47:10.797Z,100928.66
2019-02-16T03:49:44.539Z,100924.67
2019-02-16T03:52:18.582Z,100921.27
2019-02-16T03:54:51.755Z,100913.89
2019-02-16T03:57:25.861Z,100913.63
2019-02-16T03:59:59.708Z,100913.08
2019-02-16T04:02:33.678Z,100910.16
2019-02-16T04:05:07.382Z,100909.19
2019-02-16T04:07:40.643Z,100913.86
2019-02-16T04:10:14.695Z,100912.78
2019-02-16T04:12:48.314Z,100910.05
2019-02-16T04:15:22.018Z,100907.36
2019-02-16T04:17:56.091Z,100902.32
2019-02-16T04:20:29.288Z,100898.99
2019-02-16T04:23:03.058Z,100895.02
2019-02-16T04:25:36.735Z,100893.22
2019-02-16T04:28:10.538Z,100897.13
2019-02-16T04:30:44.174Z,100898.13
2019-02-16T04:33:17.016Z,100892.32
2019-02-16T04:35:50.701Z,100891.43
2019-02-16T04:38:24.414Z,100891.90
2019-02-16T04:40:57.768Z,100884.36
2019-02-16T04:43:31.087Z,100884.86
2019-02-16T04:46:04.836Z,100887.70
2019-02-16T04:48:38.564Z,100891.80
2019-02-16T04:51:11.420Z,100893.09
2019-02-16T04:53:45.488Z,100895.00
2019-02-16T04:56:19.206Z,100893.89
2019-02-16T04:58:52.008Z,100890.19
2019-02-16T05:01:25.200Z,100888.87
2019-02-16T05:03:59.218Z,100890.69
2019-02-16T05:06:32.864Z,100893.63
2019-02-16T05:09:07.361Z,100890.48
2019-02-16T05:11:40.720Z,100890.77
2019-02-16T05:14:14.302Z,100882.48
2019-02-16T05:16:47.588Z,100890.11
2019-02-16T05:19:20.901Z,100881.64
2019-02-16T05:21:53.808Z,100882.84
2019-02-16T05:24:27.007Z,100887.95
2019-02-16T05:27:00.430Z,100886.28
2019-02-16T05:29:34.245Z,100884.47
2019-02-16T05:32:07.999Z,100880.05
2019-02-16T05:34:41.531Z,100886.73
2019-02-16T05:37:15.180Z,100893.03
2019-02-16T05:39:49.621Z,100891.04
2019-02-16T05:42:24.503Z,100897.02
2019-02-16T05:44:57.742Z,100893.36
2019-02-16T05:47:30.998Z,100891.90
2019-02-16T05:50:04.246Z,100893.56
2019-02-16T05:52:38.321Z,100895.66
2019-02-16T05:55:11.090Z,100896.05
2019-02-16T05:57:44.042Z,100901.02
2019-02-16T06:00:18.867Z,100897.45
2019-02-16T06:02:52.830Z,100900.11
2019-02-16T06:05:27.013Z,100894.08
2019-02-16T06:08:01.108Z,100894.53
2019-02-16T06:10:36.275Z,100900.09
2019-02-16T06:13:10.121Z,100902.85
2019-02-16T06:15:43.433Z,100901.08
2019-02-16T06:18:17.173Z,100899.85
2019-02-16T06:20:50.001Z,100902.84
2019-02-16T06:23:23.776Z,100903.20
2019-02-16T06:25:56.665Z,100899.89
2019-02-16T06:28:30.531Z,100902.73
2019-02-16T06:31:04.233Z,100908.13
2019-02-16T06:33:38.406Z,100908.48
2019-02-16T06:36:17.581Z,100911.80
2019-02-16T06:38:51.122Z,100907.12
2019-02-16T06:41:24.415Z,100908.20
2019-02-16T06:43:58.684Z,100912.50
2019-02-16T06:46:31.552Z,100914.78
2019-02-16T06:49:05.364Z,100910.68
2019-02-16T06:51:39.415Z,100914.92
2019-02-16T06:54:13.495Z,100916.28
2019-02-16T06:57:06.657Z,100917.20
2019-02-16T06:59:40.354Z,100917.33
2019-02-16T07:02:14.097Z,100916.95
2019-02-16T07:04:46.676Z,100916.81
2019-02-16T07:07:21.064Z,100918.16
2019-02-16T07:09:54.201Z,100915.70
2019-02-16T07:12:28.116Z,100913.47
2019-02-16T07:15:01.822Z,100912.00
2019-02-16T07:17:47.279Z,100911.66
2019-02-16T07:20:22.334Z,100911.48
2019-02-16T07:22:55.605Z,100913.94
2019-02-16T07:25:28.638Z,100909.35
2019-02-16T07:28:01.856Z,100908.47
2019-02-16T07:30:35.483Z,100911.67
2019-02-16T07:33:08.959Z,100913.93
2019-02-16T07:35:42.513Z,100910.64
2019-02-16T07:38:16.150Z,100912.81
2019-02-16T07:40:48.592Z,100910.96
2019-02-16T07:43:43.097Z,100909.87
2019-02-16T07:46:28.857Z,100905.25
2019-02-16T07:49:13.308Z,100908.48
2019-02-16T07:52:12.812Z,100902.88
2019-02-16T07:54:53.897Z,100904.74
2019-02-16T07:57:35.681Z,100895.34
2019-02-16T08:00:23.742Z,100889.98
2019-02-16T08:03:17.909Z,100888.53
2019-02-16T08:06:01.853Z,100891.14
2019-02-16T08:08:50.655Z,100893.78
2019-02-16T08:11:42.801Z,100897.59
2019-02-16T08:14:38.855Z,100898.76
2019-02-16T08:17:27.588Z,100899.80
2019-02-16T08:20:26.054Z,100891.14
2019-02-16T08:23:18.013Z,100887.78
2019-02-16T08:26:19.307Z,100889.21
2019-02-16T08:29:14.492Z,100886.48
2019-02-16T08:31:58.526Z,100886.44
2019-02-16T08:34:51.040Z,100889.66
2019-02-16T08:37:35.641Z,100891.20
2019-02-16T08:40:18.941Z,100885.91
2019-02-16T08:43:09.589Z,100875.14
2019-02-16T08:45:56.733Z,100876.61
2019-02-16T08:48:47.615Z,100872.92
2019-02-16T08:51:39.519Z,100870.50
2019-02-16T08:54:38.918Z,100867.95
2019-02-16T08:57:25.220Z,100867.25
2019-02-16T09:00:19.842Z,100868.28
2019-02-16T09:03:00.860Z,100864.54
2019-02-16T09:05:40.679Z,100864.64
2019-02-16T09:08:43.648Z,100867.35
2019-02-16T09:11:43.069Z,100864.45
2019-02-16T09:14:35.118Z,100864.89
2019-02-16T09:17:29.763Z,100860.83
2019-02-16T09:20:20.766Z,100860.72
2019-02-16T09:23:00.211Z,100854.13
2019-02-16T09:25:50.713Z,100851.67
2019-02-16T09:28:52.608Z,100855.93
2019-02-16T09:31:55.565Z,100849.08
2019-02-16T09:34:48.869Z,100841.50
2019-02-16T09:37:46.367Z,100842.06
2019-02-16T09:40:38.484Z,100835.86
2019-02-16T09:43:27.822Z,100835.05
2019-02-16T09:46:21.559Z,100836.75
2019-02-16T09:49:15.263Z,100828.59
2019-02-16T09:51:59.712Z,100830.91
2019-02-16T09:54:50.697Z,100825.50
2019-02-16T09:57:42.579Z,100828.42
2019-02-16T10:00:35.121Z,100826.39
2019-02-16T10:03:31.048Z,100822.75
2019-02-16T10:06:27.084Z,100825.73
2019-02-16T10:09:17.584Z,100824.26
2019-02-16T10:12:12.877Z,100825.02
2019-02-16T10:15:11.656Z,100827.88
2019-02-16T10:18:07.396Z,100823.80
2019-02-16T10:21:09.754Z,100822.01
2019-02-16T10:24:01.303Z,100816.66
2019-02-16T10:27:06.637Z,100813.52
2019-02-16T10:30:17.386Z,100810.80
2019-02-16T10:33:17.843Z,100795.56
2019-02-16T10:36:19.742Z,100788.39
2019-02-16T10:39:10.357Z,100795.94
2019-02-16T10:41:59.620Z,100797.53
2019-02-16T10:44:57.520Z,100788.34
2019-02-16T10:47:57.515Z,100789.57
2019-02-16T10:50:47.746Z,100783.39
2019-02-16T10:53:52.148Z,100776.75
2019-02-16T10:56:43.377Z,100770.79
2019-02-16T10:59:46.490Z,100773.93
2019-02-16T11:02:43.890Z,100767.77
2019-02-16T11:05:33.628Z,100775.72
2019-02-16T11:08:24.726Z,100769.02
2019-02-16T11:11:09.685Z,100767.52
2019-02-16T11:14:05.120Z,100767.05
2019-02-16T11:17:15.906Z,100759.81
2019-02-16T11:20:08.566Z,100760.39
2019-02-16T11:22:47.726Z,100759.25
2019-02-16T11:25:43.386Z,100753.73
2019-02-16T11:28:39.321Z,100756.19
2019-02-16T11:31:38.840Z,100751.44
2019-02-16T11:34:37.706Z,100747.66
2019-02-16T11:37:45.837Z,100742.46
2019-02-16T11:40:48.572Z,100735.22
2019-02-16T11:43:33.048Z,100736.95
2019-02-16T11:46:40.049Z,100736.84
2019-02-16T11:49:31.053Z,100734.32
2019-02-16T11:52:21.390Z,100724.43
2019-02-16T11:55:16.500Z,100720.38
2019-02-16T11:58:11.463Z,100720.08
2019-02-16T12:01:02.467Z,100701.20
2019-02-16T12:03:53.649Z,100697.26
2019-02-16T12:06:38.013Z,100688.73
2019-02-16T12:09:18.682Z,100688.37
2019-02-16T12:12:10.150Z,100682.68
2019-02-16T12:15:08.663Z,100677.09
2019-02-16T12:17:58.709Z,100667.71
2019-02-16T12:20:50.039Z,100664.11
2019-02-16T12:23:29.779Z,100655.54
2019-02-16T12:26:22.284Z,100648.42
2019-02-16T12:29:07.417Z,100648.74
2019-02-16T12:31:58.553Z,100646.02
2019-02-16T12:34:53.877Z,100639.08
2019-02-16T12:37:46.598Z,100627.55
2019-02-16T12:40:30.289Z,100621.08
2019-02-16T12:43:15.909Z,100613.55
2019-02-16T12:46:12.780Z,100605.97
2019-02-16T12:49:02.125Z,100603.93
2019-02-16T12:51:53.293Z,100598.75
2019-02-16T12:54:45.727Z,100589.77
2019-02-16T12:57:34.790Z,100593.78
2019-02-16T13:00:18.541Z,100586.01
2019-02-16T13:03:09.476Z,100584.48
2019-02-16T13:06:02.760Z,100583.03
2019-02-16T13:08:44.424Z,100571.50
2019-02-16T13:11:26.108Z,100574.54
2019-02-16T13:14:18.126Z,100568.84
2019-02-16T13:17:05.616Z,100569.74
2019-02-16T13:20:02.541Z,100569.70
2019-02-16T13:22:58.851Z,100567.62
2019-02-16T13:25:51.297Z,100557.08
2019-02-16T13:28:57.668Z,100545.73
2019-02-16T13:31:44.647Z,100551.34
2019-02-16T13:34:22.508Z,100552.56
2019-02-16T13:37:10.231Z,100549.00
2019-02-16T13:40:01.914Z,100540.90
2019-02-16T13:43:11.562Z,100538.73
2019-02-16T13:45:53.609Z,100530.92
2019-02-16T13:48:32.819Z,100530.01
2019-02-16T13:51:17.279Z,100530.94
2019-02-16T13:54:09.919Z,100525.86
2019-02-16T13:57:02.693Z,100524.55
2019-02-16T13:59:58.058Z,100523.55
2019-02-16T14:02:57.423Z,100520.21
2019-02-16T14:05:53.972Z,100516.97
2019-02-16T14:08:56.765Z,100515.70
2019-02-16T14:11:53.309Z,100514.67
2019-02-16T14:14:39.492Z,100510.22
2019-02-16T14:17:35.499Z,100507.06
2019-02-16T14:20:10.698Z,100501.50
2019-02-16T14:22:45.195Z,100509.04
2019-02-16T14:25:47.749Z,100507.75
2019-02-16T14:28:21.708Z,100507.22
2019-02-16T14:30:55.525Z,100503.94
2019-02-16T14:33:29.591Z,100503.47
2019-02-16T14:36:02.893Z,100501.76
2019-02-16T14:38:42.454Z,100502.09
2019-02-16T14:41:15.861Z,100499.87
2019-02-16T14:43:50.186Z,100494.08
2019-02-16T14:46:24.664Z,100491.61
2019-02-16T14:48:59.212Z,100494.16
2019-02-16T14:51:32.376Z,100496.98
2019-02-16T14:54:06.618Z,100492.64
2019-02-16T14:56:41.377Z,100493.44
2019-02-16T14:59:14.826Z,100489.80
2019-02-16T15:01:49.526Z,100488.77
2019-02-16T15:04:23.693Z,100483.90
2019-02-16T15:06:57.500Z,100485.06
2019-02-16T15:09:30.888Z,100480.98
2019-02-16T15:12:04.202Z,100477.61
2019-02-16T15:14:38.392Z,100483.55
2019-02-16T15:17:11.740Z,100484.59
2019-02-16T15:19:45.389Z,100484.24
2019-02-16T15:22:19.119Z,100477.11
2019-02-16T15:24:53.238Z,100476.19
2019-02-16T15:27:27.969Z,100470.16
2019-02-16T15:30:02.610Z,100466.57
2019-02-16T15:32:37.770Z,100467.30
2019-02-16T15:35:12.172Z,100461.56
2019-02-16T15:37:46.255Z,100468.05
2019-02-16T15:40:20.573Z,100466.73
2019-02-16T15:42:54.678Z,100476.83
2019-02-16T15:45:29.350Z,100478.42
2019-02-16T15:48:03.180Z,100481.73
2019-02-16T15:50:37.023Z,100480.31
2019-02-16T15:53:11.512Z,100487.41
2019-02-16T15:55:46.037Z,100485.80
2019-02-16T15:58:22.004Z,100491.05
2019-02-16T16:00:56.411Z,100491.94
2019-02-16T16:03:31.638Z,100492.35
2019-02-16T16:06:05.745Z,100495.09
2019-02-16T16:08:59.171Z,100495.56
2019-02-16T16:11:51.707Z,100490.85
2019-02-16T16:14:33.281Z,100491.94
2019-02-16T16:17:33.888Z,100495.88
2019-02-16T16:20:53.574Z,100500.93
2019-02-16T16:23:59.620Z,100504.94
2019-02-16T16:26:52.009Z,100508.86
2019-02-16T16:29:50.204Z,100506.91
2019-02-16T16:32:41.908Z,100510.95
2019-02-16T16:35:31.056Z,100507.38
2019-02-16T16:38:31.378Z,100507.22
2019-02-16T16:41:23.500Z,100513.08
2019-02-16T16:44:09.249Z,100507.91
2019-02-16T16:46:51.498Z,100514.60
2019-02-16T16:49:53.416Z,100503.16
2019-02-16T16:52:45.083Z,100502.70
2019-02-16T16:55:38.236Z,100505.33
2019-02-16T16:58:30.035Z,100502.75
2019-02-16T17:01:26.048Z,100503.12
2019-02-16T17:04:18.949Z,100506.11
2019-02-16T17:07:06.736Z,100503.38
2019-02-16T17:10:08.266Z,100504.00
2019-02-16T17:12:56.021Z,100507.45
2019-02-16T17:16:04.339Z,100504.73
2019-02-16T17:18:47.055Z,100496.69
2019-02-16T17:21:34.446Z,100507.55
2019-02-16T17:24:36.674Z,100502.53
2019-02-16T17:27:46.651Z,100506.61
2019-02-16T17:30:53.145Z,100501.59
2019-02-16T17:33:49.364Z,100496.83
2019-02-16T17:36:45.403Z,100497.78
2019-02-16T17:39:40.000Z,100495.27
2019-02-16T17:42:35.779Z,100490.41
2019-02-16T17:45:31.654Z,100489.98
2019-02-16T17:48:24.173Z,100489.63
2019-02-16T17:51:23.387Z,100483.85
2019-02-16T17:54:17.286Z,100482.16
2019-02-16T17:57:10.649Z,100478.47
2019-02-16T18:00:03.846Z,100469.32
2019-02-16T18:03:02.258Z,100472.92
2019-02-16T18:05:56.230Z,100473.32
2019-02-16T18:08:51.477Z,100475.45
2019-02-16T18:11:59.980Z,100480.97
2019-02-16T18:14:56.319Z,100479.20
2019-02-16T18:17:58.639Z,100483.30
2019-02-16T18:20:58.084Z,100487.27
2019-02-16T18:23:42.697Z,100488.84
2019-02-16T18:26:45.766Z,100488.74
2019-02-16T18:29:37.470Z,100490.05
2019-02-16T18:32:45.513Z,100489.48
2019-02-16T18:35:41.691Z,100490.38
2019-02-16T18:38:27.779Z,100486.72
2019-02-16T18:41:18.039Z,100487.77
2019-02-16T18:44:15.660Z,100486.28
2019-02-16T18:47:07.638Z,100478.27
2019-02-16T18:50:15.122Z,100482.63
2019-02-16T18:53:06.829Z,100481.27
2019-02-16T18:55:50.569Z,100478.13
2019-02-16T18:58:45.683Z,100475.92
2019-02-16T19:01:37.227Z,100482.25
2019-02-16T19:04:33.229Z,100485.06
2019-02-16T19:07:41.187Z,100478.41
2019-02-16T19:10:37.214Z,100476.86
2019-02-16T19:13:31.467Z,100475.56
2019-02-16T19:16:32.971Z,100470.77
2019-02-16T19:19:32.696Z,100469.06
2019-02-16T19:22:37.387Z,100472.14
2019-02-16T19:25:26.484Z,100473.58
2019-02-16T19:28:17.293Z,100470.00
2019-02-16T19:31:12.253Z,100466.95
2019-02-16T19:34:03.725Z,100464.03
2019-02-16T19:36:49.916Z,100464.09
2019-02-16T19:39:42.167Z,100465.28
2019-02-16T19:42:43.706Z,100462.57
2019-02-16T19:45:30.506Z,100461.66
2019-02-16T19:48:41.730Z,100457.28
2019-02-16T19:51:30.625Z,100459.02
2019-02-16T19:54:22.632Z,100455.50
2019-02-16T19:57:14.605Z,100449.71
2019-02-16T20:00:21.929Z,100456.80
2019-02-16T20:03:31.882Z,100455.92
2019-02-16T20:06:29.731Z,100460.67
2019-02-16T20:09:16.690Z,100465.21
2019-02-16T20:12:17.089Z,100457.30
2019-02-16T20:15:00.322Z,100453.66
2019-02-16T20:18:05.669Z,100451.70
2019-02-16T20:20:58.311Z,100459.40
2019-02-16T20:23:49.634Z,100461.41
2019-02-16T20:26:48.417Z,100467.20
2019-02-16T20:29:38.434Z,100477.02
2019-02-16T20:32:31.138Z,100477.45
2019-02-16T20:35:29.386Z,100477.02
2019-02-16T20:38:40.570Z,100479.42
2019-02-16T20:41:33.374Z,100477.56
2019-02-16T20:44:34.207Z,100475.16
2019-02-16T20:47:19.902Z,100480.50
2019-02-16T20:50:11.969Z,100483.48
2019-02-16T20:53:08.600Z,100483.48
2019-02-16T20:55:50.998Z,100476.87
2019-02-16T20:58:55.104Z,100475.59
2019-02-16T21:01:47.261Z,100476.05
2019-02-16T21:04:42.910Z,100474.23
2019-02-16T21:07:38.287Z,100472.77
2019-02-16T21:10:37.268Z,100476.87
2019-02-16T21:13:19.034Z,100478.98
2019-02-16T21:16:11.585Z,100479.70
2019-02-16T21:19:11.118Z,100479.84
2019-02-16T21:22:09.086Z,100479.77
2019-02-16T21:25:08.956Z,100479.05
2019-02-16T21:28:00.006Z,100483.29
2019-02-16T21:30:57.488Z,100488.23
2019-02-16T21:33:45.441Z,100493.25
2019-02-16T21:36:32.141Z,100480.05
2019-02-16T21:39:27.345Z,100482.96
2019-02-16T21:42:22.395Z,100478.95
2019-02-16T21:45:27.250Z,100477.45
2019-02-16T21:48:15.726Z,100482.28
2019-02-16T21:51:07.039Z,100486.91
2019-02-16T21:54:02.210Z,100486.92
2019-02-16T21:56:53.870Z,100483.61
2019-02-16T21:59:55.164Z,100479.20
2019-02-16T22:02:41.900Z,100477.28
2019-02-16T22:05:33.377Z,100471.84
2019-02-16T22:08:30.332Z,100471.24
2019-02-16T22:11:33.056Z,100471.45
2019-02-16T22:14:14.955Z,100473.36
2019-02-16T22:16:49.404Z,100473.78
2019-02-16T22:19:24.376Z,100470.89
2019-02-16T22:21:59.524Z,100474.98
2019-02-16T22:24:34.166Z,100475.97
2019-02-16T22:27:08.597Z,100483.30
2019-02-16T22:29:43.426Z,100476.56
2019-02-16T22:32:17.820Z,100478.64
2019-02-16T22:34:52.435Z,100480.59
2019-02-16T22:37:26.894Z,100478.67
2019-02-16T22:40:01.333Z,100476.59
2019-02-16T22:42:36.383Z,100468.02
2019-02-16T22:45:13.567Z,100468.95
2019-02-16T22:47:48.103Z,100479.81
2019-02-16T22:50:23.884Z,100486.05
2019-02-16T22:52:58.183Z,100486.15
2019-02-16T22:55:32.566Z,100479.81
2019-02-16T22:58:06.355Z,100476.41
2019-02-16T23:00:49.402Z,100485.88
2019-02-16T23:03:24.800Z,100480.31
2019-02-16T23:05:59.828Z,100486.94
2019-02-16T23:08:34.340Z,100482.36
2019-02-16T23:11:09.546Z,100480.72
2019-02-16T23:13:44.041Z,100486.73
2019-02-16T23:16:18.824Z,100484.55
2019-02-16T23:18:53.274Z,100483.71
2019-02-16T23:21:28.028Z,100485.05
2019-02-16T23:24:03.229Z,100483.75
2019-02-16T23:26:38.777Z,100483.68
2019-02-16T23:29:13.437Z,100483.32
2019-02-16T23:31:50.618Z,100484.14
2019-02-16T23:34:24.695Z,100484.38
2019-02-16T23:36:59.668Z,100481.39
2019-02-16T23:39:34.684Z,100483.00
2019-02-16T23:42:09.145Z,100482.09
2019-02-16T23:44:43.361Z,100477.68
2019-02-16T23:47:18.400Z,100479.72
2019-02-16T23:49:52.670Z,100483.11
2019-02-16T23:52:28.739Z,100480.45
2019-02-16T23:55:05.420Z,100480.64
2019-02-16T23:57:39.542Z,100477.58
